KSLE/SLE METAR and TAF weather

Enter ICAO airport designator
Station Type Date Time Source
KSLE METAR 2022/07/03 14:06 UTC NOAA

KSLE 031406Z 28004KT 10SM OVC028 15/10 A2996 RMK AO2 T01500100


Station Type Date Time Source
KSLE Decoded METAR 2022/07/03 14:06 UTC NOAA

SALEM MCNARY FIELD, OR, United States (KSLE) 44-54N 123-00W 59M
Jul 03, 2022 - 10:06 AM EDT / 2022.07.03 1406 UTC
Wind: from the W (280 degrees) at 5 MPH (4 KT):0
Visibility: 10 mile(s):0
Sky conditions: overcast
Temperature: 59.0 F (15.0 C)
Dew Point: 50.0 F (10.0 C)
Relative Humidity: 72%
Pressure (altimeter): 29.96 in. Hg (1014 hPa)
ob: KSLE 031406Z 28004KT 10SM OVC028 15/10 A2996 RMK AO2 T01500100
cycle: 14

Station Type Date Time Source
KSLE TAF 2022/07/03 14:51 UTC NOAA

TAF
AMD KSLE 031348Z 0314/0412 29004KT P6SM BKN025 OVC040
FM032000 29004KT P6SM SCT025 OVC035
FM032200 31006KT P6SM BKN035
FM040900 VRB03KT P6SM BKN025 OVC035

Example: see airport list